createdAt,value
2023-02-26T00:02:01.332Z,99375.72
2023-02-26T00:04:30.180Z,99369.16
2023-02-26T00:06:58.618Z,99375.88
2023-02-26T00:09:32.825Z,99375.00
2023-02-26T00:12:01.830Z,99369.06
2023-02-26T00:14:31.132Z,99383.03
2023-02-26T00:17:35.929Z,99369.16
2023-02-26T00:20:12.801Z,99373.44
2023-02-26T00:22:42.905Z,99362.00
2023-02-26T00:25:11.413Z,99368.47
2023-02-26T00:27:40.901Z,99373.06
2023-02-26T00:30:10.524Z,99379.53
2023-02-26T00:32:39.991Z,99386.56
2023-02-26T00:35:09.833Z,99389.25
2023-02-26T00:37:47.726Z,99388.25
2023-02-26T00:40:20.600Z,99393.50
2023-02-26T00:42:50.169Z,99390.84
2023-02-26T00:45:21.427Z,99395.56
2023-02-26T00:47:57.162Z,99395.81
2023-02-26T00:50:27.900Z,99396.19
2023-02-26T00:53:09.202Z,99398.00
2023-02-26T00:55:39.074Z,99385.84
2023-02-26T00:58:07.058Z,99379.16
2023-02-26T01:00:35.462Z,99380.25
2023-02-26T01:03:04.221Z,99376.13
2023-02-26T01:05:33.529Z,99383.69
2023-02-26T01:08:14.647Z,99386.44
2023-02-26T01:10:44.586Z,99389.25
2023-02-26T01:13:14.138Z,99389.38
2023-02-26T01:15:56.208Z,99393.13
2023-02-26T01:18:52.443Z,99389.47
2023-02-26T01:21:44.698Z,99393.38
2023-02-26T01:24:16.347Z,99399.06
2023-02-26T01:26:44.604Z,99410.75
2023-02-26T01:29:13.213Z,99436.00
2023-02-26T01:31:56.482Z,99426.03
2023-02-26T01:34:45.050Z,99434.66
2023-02-26T01:37:34.864Z,99429.44
2023-02-26T01:40:19.160Z,99437.69
2023-02-26T01:42:52.067Z,99441.69
2023-02-26T01:45:45.285Z,99442.06
2023-02-26T01:48:25.874Z,99446.66
2023-02-26T01:50:54.534Z,99447.50
2023-02-26T01:53:27.652Z,99444.00
2023-02-26T01:56:02.778Z,99451.91
2023-02-26T01:58:34.027Z,99446.44
2023-02-26T02:01:03.547Z,99443.41
2023-02-26T02:03:34.737Z,99445.00
2023-02-26T02:06:07.946Z,99441.97
2023-02-26T02:08:36.985Z,99447.94
2023-02-26T02:11:09.378Z,99451.56
2023-02-26T02:13:53.864Z,99445.34
2023-02-26T02:16:46.522Z,99440.50
2023-02-26T02:19:47.204Z,99445.09
2023-02-26T02:22:28.109Z,99445.94
2023-02-26T02:25:14.600Z,99436.69
2023-02-26T02:28:01.215Z,99458.28
2023-02-26T02:30:32.563Z,99464.81
2023-02-26T02:33:13.381Z,99468.47
2023-02-26T02:35:58.869Z,99484.28
2023-02-26T02:38:35.609Z,99494.09
2023-02-26T02:41:20.779Z,99506.34
2023-02-26T02:43:50.473Z,99516.09
2023-02-26T02:46:27.599Z,99512.91
2023-02-26T02:49:00.108Z,99520.69
2023-02-26T02:52:07.525Z,99520.97
2023-02-26T02:54:42.160Z,99527.78
2023-02-26T02:57:16.672Z,99530.47
2023-02-26T02:59:47.748Z,99536.22
2023-02-26T03:02:27.738Z,99548.59
2023-02-26T03:04:56.437Z,99546.78
2023-02-26T03:07:45.508Z,99552.13
2023-02-26T03:10:14.643Z,99557.47
2023-02-26T03:12:42.784Z,99555.00
2023-02-26T03:15:11.911Z,99542.41
2023-02-26T03:17:52.635Z,99546.78
2023-02-26T03:20:28.941Z,99560.13
2023-02-26T03:23:09.984Z,99548.38
2023-02-26T03:25:52.612Z,99577.41
2023-02-26T03:28:32.199Z,99572.78
2023-02-26T03:31:22.491Z,99582.06
2023-02-26T03:34:18.206Z,99575.63
2023-02-26T03:36:51.333Z,99579.16
2023-02-26T03:39:29.705Z,99572.94
2023-02-26T03:42:09.883Z,99585.22
2023-02-26T03:44:44.973Z,99584.50
2023-02-26T03:47:15.211Z,99582.69
2023-02-26T03:49:48.366Z,99586.66
2023-02-26T03:52:19.884Z,99596.50
2023-02-26T03:55:02.756Z,99607.41
2023-02-26T03:57:31.104Z,99611.19
2023-02-26T03:59:59.512Z,99620.06
2023-02-26T04:02:59.587Z,99630.63
2023-02-26T04:05:34.147Z,99627.94
2023-02-26T04:08:03.516Z,99629.13
2023-02-26T04:10:38.880Z,99640.06
2023-02-26T04:13:08.461Z,99646.38
2023-02-26T04:15:36.331Z,99652.06
2023-02-26T04:18:04.908Z,99642.34
2023-02-26T04:20:34.176Z,99645.75
2023-02-26T04:23:02.709Z,99673.56
2023-02-26T04:25:33.498Z,99677.19
2023-02-26T04:28:01.647Z,99699.31
2023-02-26T04:30:46.092Z,99713.50
2023-02-26T04:33:16.513Z,99700.28
2023-02-26T04:35:44.531Z,99726.03
2023-02-26T04:38:12.956Z,99738.09
2023-02-26T04:40:41.536Z,99741.72
2023-02-26T04:43:11.344Z,99740.03
2023-02-26T04:45:42.391Z,99729.53
2023-02-26T04:48:11.889Z,99746.75
2023-02-26T04:50:40.382Z,99758.75
2023-02-26T04:53:08.698Z,99767.09
2023-02-26T04:55:37.480Z,99774.47
2023-02-26T04:58:09.182Z,99792.19
2023-02-26T05:00:37.818Z,99787.31
2023-02-26T05:03:06.156Z,99785.69
2023-02-26T05:05:34.214Z,99786.66
2023-02-26T05:08:02.608Z,99784.13
2023-02-26T05:10:31.525Z,99785.06
2023-02-26T05:13:00.222Z,99789.53
2023-02-26T05:15:28.536Z,99788.69
2023-02-26T05:17:57.100Z,99788.69
2023-02-26T05:20:25.715Z,99790.63
2023-02-26T05:22:54.452Z,99788.81
2023-02-26T05:25:23.192Z,99781.78
2023-02-26T05:27:54.653Z,99785.50
2023-02-26T05:30:24.134Z,99783.78
2023-02-26T05:32:55.151Z,99790.31
2023-02-26T05:35:27.305Z,99798.41
2023-02-26T05:37:55.660Z,99794.25
2023-02-26T05:40:24.271Z,99801.19
2023-02-26T05:42:52.532Z,99809.22
2023-02-26T05:45:21.689Z,99809.97
2023-02-26T05:47:52.272Z,99817.03
2023-02-26T05:50:20.328Z,99822.25
2023-02-26T05:52:49.446Z,99823.00
2023-02-26T05:55:22.141Z,99832.72
2023-02-26T05:57:53.819Z,99844.47
2023-02-26T06:00:27.981Z,99840.84
2023-02-26T06:02:56.078Z,99856.97
2023-02-26T06:05:27.868Z,99867.66
2023-02-26T06:07:56.367Z,99876.50
2023-02-26T06:10:25.056Z,99872.25
2023-02-26T06:12:54.053Z,99873.84
2023-02-26T06:15:22.524Z,99875.13
2023-02-26T06:17:50.856Z,99864.84
2023-02-26T06:20:19.051Z,99874.25
2023-02-26T06:22:50.114Z,99868.91
2023-02-26T06:25:23.443Z,99863.88
2023-02-26T06:27:53.734Z,99862.16
2023-02-26T06:30:24.120Z,99866.31
2023-02-26T06:32:52.980Z,99864.44
2023-02-26T06:35:21.802Z,99860.97
2023-02-26T06:37:53.565Z,99871.56
2023-02-26T06:40:22.068Z,99877.47
2023-02-26T06:42:50.447Z,99866.66
2023-02-26T06:45:18.610Z,99875.44
2023-02-26T06:47:46.737Z,99879.81
2023-02-26T06:50:15.446Z,99883.34
2023-02-26T06:52:45.259Z,99890.94
2023-02-26T06:55:14.138Z,99892.00
2023-02-26T06:57:42.985Z,99906.31
2023-02-26T07:00:13.430Z,99915.06
2023-02-26T07:02:41.905Z,99921.25
2023-02-26T07:05:11.678Z,99921.56
2023-02-26T07:07:41.710Z,99921.50
2023-02-26T07:10:12.130Z,99938.38
2023-02-26T07:12:40.853Z,99927.88
2023-02-26T07:15:09.695Z,99938.75
2023-02-26T07:17:41.533Z,99926.56
2023-02-26T07:20:10.946Z,99924.97
2023-02-26T07:22:39.264Z,99934.81
2023-02-26T07:25:08.605Z,99933.72
2023-02-26T07:27:38.293Z,99938.31
2023-02-26T07:30:08.081Z,99939.19
2023-02-26T07:32:36.930Z,99941.00
2023-02-26T07:35:11.485Z,99950.16
2023-02-26T07:37:51.047Z,99944.63
2023-02-26T07:40:19.890Z,99937.16
2023-02-26T07:42:49.567Z,99953.94
2023-02-26T07:45:22.964Z,99965.75
2023-02-26T07:47:53.222Z,99951.56
2023-02-26T07:50:21.964Z,99947.41
2023-02-26T07:52:50.051Z,99957.47
2023-02-26T07:55:18.837Z,99955.47
2023-02-26T07:57:46.979Z,99952.72
2023-02-26T08:00:16.272Z,99955.28
2023-02-26T08:02:48.193Z,99959.59
2023-02-26T08:05:16.028Z,99963.44
2023-02-26T08:07:44.240Z,99969.31
2023-02-26T08:10:13.294Z,99955.84
2023-02-26T08:15:27.469Z,99961.72
2023-02-26T08:17:55.621Z,99967.50
2023-02-26T08:20:24.209Z,99975.97
2023-02-26T08:22:53.474Z,99974.03
2023-02-26T08:25:22.327Z,99967.06
2023-02-26T08:27:50.545Z,99977.34
2023-02-26T08:30:20.130Z,99968.97
2023-02-26T08:32:51.441Z,99976.66
2023-02-26T08:35:19.767Z,99986.47
2023-02-26T08:37:59.159Z,99982.41
2023-02-26T08:40:27.357Z,99991.28
2023-02-26T08:43:00.043Z,99998.34
2023-02-26T08:45:28.399Z,100010.66
2023-02-26T08:47:57.478Z,100014.41
2023-02-26T08:50:27.089Z,100021.38
2023-02-26T08:52:55.174Z,100020.09
2023-02-26T08:55:25.012Z,100035.09
2023-02-26T08:57:53.955Z,100036.38
2023-02-26T09:00:22.287Z,100043.13
2023-02-26T09:02:50.752Z,100041.34
2023-02-26T09:05:20.268Z,100052.63
2023-02-26T09:07:50.664Z,100056.03
2023-02-26T09:10:20.341Z,100060.53
2023-02-26T09:12:49.384Z,100060.06
2023-02-26T09:15:19.165Z,100071.31
2023-02-26T09:17:51.941Z,100072.94
2023-02-26T09:20:20.277Z,100076.03
2023-02-26T09:22:50.983Z,100083.66
2023-02-26T09:25:19.464Z,100077.66
2023-02-26T09:27:50.155Z,100088.47
2023-02-26T09:30:18.643Z,100081.91
2023-02-26T09:32:50.502Z,100084.78
2023-02-26T09:35:22.517Z,100087.28
2023-02-26T09:37:51.871Z,100092.38
2023-02-26T09:40:46.318Z,100096.94
2023-02-26T09:43:52.098Z,100096.72
2023-02-26T09:46:40.185Z,100098.19
2023-02-26T09:49:28.087Z,100100.88
2023-02-26T09:52:01.712Z,100083.44
2023-02-26T09:55:26.711Z,100095.00
2023-02-26T09:58:07.333Z,100113.44
2023-02-26T10:00:58.554Z,100105.50
2023-02-26T10:03:37.482Z,100099.59
2023-02-26T10:06:21.248Z,100101.81
2023-02-26T10:09:00.861Z,100095.16
2023-02-26T10:12:03.802Z,100091.53
2023-02-26T10:14:49.452Z,100096.59
2023-02-26T10:17:23.840Z,100100.81
2023-02-26T10:19:56.463Z,100092.00
2023-02-26T10:22:49.544Z,100096.94
2023-02-26T10:25:26.472Z,100097.44
2023-02-26T10:28:35.126Z,100106.41
2023-02-26T10:31:52.765Z,100105.94
2023-02-26T10:34:31.327Z,100102.75
2023-02-26T10:37:11.471Z,100098.28
2023-02-26T10:40:09.485Z,100130.22
2023-02-26T10:42:47.403Z,100129.25
2023-02-26T10:45:24.511Z,100134.28
2023-02-26T10:48:10.899Z,100134.63
2023-02-26T10:50:49.067Z,100131.00
2023-02-26T10:53:17.245Z,100127.34
2023-02-26T10:55:50.669Z,100137.97
2023-02-26T10:58:25.430Z,100140.00
2023-02-26T11:00:57.521Z,100133.28
2023-02-26T11:03:38.787Z,100139.25
2023-02-26T11:06:10.248Z,100136.38
2023-02-26T11:08:47.004Z,100136.88
2023-02-26T11:11:48.818Z,100157.97
2023-02-26T11:14:17.651Z,100157.13
2023-02-26T11:16:54.042Z,100149.41
2023-02-26T11:19:32.536Z,100159.06
2023-02-26T11:22:01.097Z,100161.19
2023-02-26T11:24:37.517Z,100155.84
2023-02-26T11:27:09.371Z,100160.13
2023-02-26T11:29:48.072Z,100164.59
2023-02-26T11:32:24.852Z,100164.19
2023-02-26T11:34:58.942Z,100167.78
2023-02-26T11:37:35.833Z,100153.84
2023-02-26T11:40:38.976Z,100164.38
2023-02-26T11:43:11.227Z,100155.16
2023-02-26T11:45:44.980Z,100159.16
2023-02-26T11:48:20.038Z,100162.81
2023-02-26T11:50:50.433Z,100159.63
2023-02-26T11:53:28.552Z,100160.34
2023-02-26T11:56:11.750Z,100151.16
2023-02-26T11:58:42.412Z,100160.72
2023-02-26T12:01:13.833Z,100170.47
2023-02-26T12:03:46.693Z,100168.78
2023-02-26T12:06:25.160Z,100173.50
2023-02-26T12:08:54.670Z,100178.34
2023-02-26T12:11:56.543Z,100183.03
2023-02-26T12:14:48.955Z,100193.22
2023-02-26T12:17:51.016Z,100194.53
2023-02-26T12:20:56.980Z,100189.25
2023-02-26T12:24:01.067Z,100187.41
2023-02-26T12:26:34.063Z,100197.56
2023-02-26T12:29:29.612Z,100199.91
2023-02-26T12:32:10.993Z,100204.31
2023-02-26T12:34:48.539Z,100205.38
2023-02-26T12:37:37.538Z,100202.72
2023-02-26T12:40:13.230Z,100218.72
2023-02-26T12:43:05.732Z,100226.84
2023-02-26T12:45:48.552Z,100243.00
2023-02-26T12:48:42.255Z,100241.28
2023-02-26T12:51:37.329Z,100253.16
2023-02-26T12:54:36.333Z,100251.28
2023-02-26T12:57:27.946Z,100256.50
2023-02-26T13:00:28.522Z,100253.09
2023-02-26T13:03:09.755Z,100258.53
2023-02-26T13:05:43.362Z,100269.50
2023-02-26T13:08:18.417Z,100275.75
2023-02-26T13:11:01.907Z,100275.53
2023-02-26T13:13:51.803Z,100272.56
2023-02-26T13:16:31.532Z,100271.31
2023-02-26T13:19:09.398Z,100278.69
2023-02-26T13:21:45.523Z,100275.88
2023-02-26T13:24:21.338Z,100281.66
2023-02-26T13:26:52.782Z,100272.78
2023-02-26T13:29:25.781Z,100266.66
2023-02-26T13:32:08.365Z,100269.63
2023-02-26T13:34:54.642Z,100263.91
2023-02-26T13:37:35.328Z,100266.03
2023-02-26T13:40:26.639Z,100264.31
2023-02-26T13:43:03.828Z,100256.09
2023-02-26T13:45:56.380Z,100268.59
2023-02-26T13:49:04.898Z,100271.97
2023-02-26T13:51:37.333Z,100264.72
2023-02-26T13:54:36.652Z,100259.97
2023-02-26T13:57:28.537Z,100264.53
2023-02-26T14:00:29.398Z,100248.91
2023-02-26T14:03:14.412Z,100245.09
2023-02-26T14:05:44.772Z,100230.41
2023-02-26T14:08:55.565Z,100239.09
2023-02-26T14:11:35.733Z,100239.66
2023-02-26T14:14:18.115Z,100247.00
2023-02-26T14:16:51.394Z,100235.19
2023-02-26T14:19:27.650Z,100240.31
2023-02-26T14:22:00.868Z,100238.69
2023-02-26T14:24:38.500Z,100257.28
2023-02-26T14:27:12.519Z,100261.47
2023-02-26T14:29:43.108Z,100270.75
2023-02-26T14:32:16.861Z,100270.56
2023-02-26T14:35:00.674Z,100263.22
2023-02-26T14:37:29.600Z,100266.63
2023-02-26T14:40:09.488Z,100256.16
2023-02-26T14:43:00.477Z,100247.56
2023-02-26T14:45:39.376Z,100247.09
2023-02-26T14:48:15.688Z,100254.03
2023-02-26T14:50:51.421Z,100258.53
2023-02-26T14:53:33.526Z,100250.53
2023-02-26T14:56:34.086Z,100232.56
2023-02-26T14:59:43.762Z,100229.34
2023-02-26T15:02:29.449Z,100219.97
2023-02-26T15:05:17.046Z,100222.06
2023-02-26T15:08:27.428Z,100215.00
2023-02-26T15:11:25.464Z,100221.47
2023-02-26T15:14:00.308Z,100240.91
2023-02-26T15:16:37.822Z,100243.50
2023-02-26T15:19:15.267Z,100258.56
2023-02-26T15:21:58.199Z,100258.72
2023-02-26T15:24:27.627Z,100276.81
2023-02-26T15:27:00.694Z,100285.19
2023-02-26T15:29:36.992Z,100293.38
2023-02-26T15:32:27.145Z,100303.09
2023-02-26T15:34:56.960Z,100306.59
2023-02-26T15:37:30.008Z,100318.94
2023-02-26T15:40:00.570Z,100332.25
2023-02-26T15:42:35.082Z,100346.28
2023-02-26T15:45:38.495Z,100347.16
2023-02-26T15:48:11.947Z,100354.56
2023-02-26T15:50:43.407Z,100362.63
2023-02-26T15:53:20.377Z,100366.16
2023-02-26T15:55:52.256Z,100373.25
2023-02-26T15:58:39.316Z,100365.13
2023-02-26T16:01:10.878Z,100365.03
2023-02-26T16:03:39.179Z,100360.66
2023-02-26T16:06:10.231Z,100366.16
2023-02-26T16:08:39.789Z,100381.25
2023-02-26T16:11:08.617Z,100389.91
2023-02-26T16:13:41.805Z,100399.56
2023-02-26T16:16:43.782Z,100401.63
2023-02-26T16:19:33.193Z,100425.06
2023-02-26T16:22:05.058Z,100411.97
2023-02-26T16:24:36.599Z,100416.63
2023-02-26T16:27:09.393Z,100415.06
2023-02-26T16:30:04.657Z,100422.44
2023-02-26T16:32:37.535Z,100407.38
2023-02-26T16:35:12.848Z,100402.06
2023-02-26T16:37:45.925Z,100410.16
2023-02-26T16:40:26.286Z,100404.91
2023-02-26T16:43:06.684Z,100420.03
2023-02-26T16:45:37.955Z,100430.09
2023-02-26T16:48:24.308Z,100433.38
2023-02-26T16:51:02.093Z,100442.81
2023-02-26T16:53:34.976Z,100443.06
2023-02-26T16:56:04.867Z,100438.81
2023-02-26T16:58:33.780Z,100445.22
2023-02-26T17:01:09.453Z,100432.34
2023-02-26T17:03:38.946Z,100435.00
2023-02-26T17:06:12.225Z,100437.78
2023-02-26T17:09:00.390Z,100438.56
2023-02-26T17:11:35.843Z,100447.22
2023-02-26T17:14:27.770Z,100457.81
2023-02-26T17:16:57.104Z,100443.47
2023-02-26T17:19:30.149Z,100458.94
2023-02-26T17:21:59.573Z,100462.56
2023-02-26T17:24:34.921Z,100468.75
2023-02-26T17:27:04.750Z,100468.88
2023-02-26T17:29:38.480Z,100488.03
2023-02-26T17:32:08.205Z,100484.41
2023-02-26T17:34:36.445Z,100491.56
2023-02-26T17:37:10.899Z,100480.03
2023-02-26T17:39:39.377Z,100467.56
2023-02-26T17:42:19.736Z,100470.28
2023-02-26T17:44:48.840Z,100453.41
2023-02-26T17:47:23.324Z,100457.06
2023-02-26T17:49:54.341Z,100446.56
2023-02-26T17:52:22.246Z,100451.88
2023-02-26T17:54:53.358Z,100452.13
2023-02-26T17:57:22.492Z,100449.41
2023-02-26T17:59:50.749Z,100450.41
2023-02-26T18:02:23.661Z,100457.00
2023-02-26T18:04:52.899Z,100475.34
2023-02-26T18:07:22.083Z,100474.53
2023-02-26T18:09:56.041Z,100467.19
2023-02-26T18:12:25.021Z,100463.84
2023-02-26T18:14:53.157Z,100464.38
2023-02-26T18:17:25.698Z,100451.75
2023-02-26T18:19:54.936Z,100453.00
2023-02-26T18:22:27.917Z,100444.75
2023-02-26T18:25:16.641Z,100431.09
2023-02-26T18:27:48.752Z,100442.84
2023-02-26T18:30:24.630Z,100449.34
2023-02-26T18:32:53.485Z,100445.59
2023-02-26T18:35:22.990Z,100453.41
2023-02-26T18:37:52.662Z,100461.47
2023-02-26T18:40:26.642Z,100474.94
2023-02-26T18:42:55.311Z,100470.09
2023-02-26T18:45:25.030Z,100481.91
2023-02-26T18:47:54.773Z,100496.47
2023-02-26T18:50:24.752Z,100499.13
2023-02-26T18:52:52.795Z,100526.13
2023-02-26T18:55:21.444Z,100504.16
2023-02-26T18:57:49.668Z,100503.31
2023-02-26T19:00:18.761Z,100496.81
2023-02-26T19:02:48.925Z,100504.56
2023-02-26T19:05:19.075Z,100513.41
2023-02-26T19:07:49.380Z,100512.78
2023-02-26T19:10:19.224Z,100521.94
2023-02-26T19:12:51.241Z,100527.19
2023-02-26T19:15:26.265Z,100536.78
2023-02-26T19:17:54.669Z,100535.78
2023-02-26T19:20:22.913Z,100541.13
2023-02-26T19:22:53.467Z,100545.66
2023-02-26T19:25:24.528Z,100541.19
2023-02-26T19:27:53.955Z,100541.13
2023-02-26T19:30:27.495Z,100540.34
2023-02-26T19:32:56.307Z,100544.78
2023-02-26T19:35:28.246Z,100543.44
2023-02-26T19:37:57.565Z,100539.41
2023-02-26T19:40:25.881Z,100538.53
2023-02-26T19:42:54.121Z,100526.94
2023-02-26T19:45:25.060Z,100534.78
2023-02-26T19:47:53.049Z,100532.13
2023-02-26T19:50:24.380Z,100526.13
2023-02-26T19:52:53.264Z,100527.66
2023-02-26T19:55:21.476Z,100538.31
2023-02-26T19:57:50.883Z,100535.56
2023-02-26T20:00:19.459Z,100531.03
2023-02-26T20:02:47.688Z,100532.91
2023-02-26T20:05:17.883Z,100530.22
2023-02-26T20:07:46.606Z,100522.56
2023-02-26T20:10:16.184Z,100522.34
2023-02-26T20:12:47.791Z,100522.84
2023-02-26T20:15:17.075Z,100508.81
2023-02-26T20:17:45.581Z,100507.09
2023-02-26T20:20:15.128Z,100491.09
2023-02-26T20:22:43.474Z,100492.22
2023-02-26T20:25:11.708Z,100487.84
2023-02-26T20:27:41.734Z,100496.84
2023-02-26T20:30:10.482Z,100516.13
2023-02-26T20:32:39.207Z,100531.94
2023-02-26T20:35:07.918Z,100540.00
2023-02-26T20:37:39.231Z,100565.75
2023-02-26T20:40:09.405Z,100588.00
2023-02-26T20:42:38.841Z,100589.72
2023-02-26T20:45:11.848Z,100590.56
2023-02-26T20:47:44.286Z,100593.22
2023-02-26T20:50:13.508Z,100587.91
2023-02-26T20:52:42.280Z,100587.91
2023-02-26T20:55:10.494Z,100588.63
2023-02-26T20:57:39.102Z,100587.53
2023-02-26T21:00:11.543Z,100585.97
2023-02-26T21:02:41.569Z,100588.53
2023-02-26T21:05:10.546Z,100589.34
2023-02-26T21:10:22.231Z,100593.94
2023-02-26T21:12:52.118Z,100603.53
2023-02-26T21:15:21.369Z,100604.28
2023-02-26T21:17:49.788Z,100607.53
2023-02-26T21:20:25.859Z,100612.06
2023-02-26T21:22:57.872Z,100622.66
2023-02-26T21:25:26.484Z,100622.06
2023-02-26T21:27:55.349Z,100635.28
2023-02-26T21:30:24.771Z,100635.28
2023-02-26T21:32:55.922Z,100633.75
2023-02-26T21:35:24.125Z,100634.53
2023-02-26T21:37:54.142Z,100657.72
2023-02-26T21:40:23.098Z,100664.03
2023-02-26T21:42:51.593Z,100657.97
2023-02-26T21:45:19.829Z,100660.78
2023-02-26T21:47:47.809Z,100672.50
2023-02-26T21:50:16.032Z,100671.72
2023-02-26T21:52:44.316Z,100673.53
2023-02-26T21:55:15.383Z,100682.63
2023-02-26T21:57:43.828Z,100693.44
2023-02-26T22:00:12.537Z,100684.78
2023-02-26T22:02:42.099Z,100683.47
2023-02-26T22:05:11.956Z,100693.13
2023-02-26T22:07:43.669Z,100682.63
2023-02-26T22:10:14.564Z,100688.16
2023-02-26T22:12:43.627Z,100696.06
2023-02-26T22:15:13.840Z,100700.59
2023-02-26T22:17:44.534Z,100698.34
2023-02-26T22:20:14.438Z,100698.34
2023-02-26T22:22:42.664Z,100702.78
2023-02-26T22:25:13.029Z,100684.44
2023-02-26T22:27:41.357Z,100681.88
2023-02-26T22:30:11.472Z,100689.75
2023-02-26T22:32:40.296Z,100685.31
2023-02-26T22:35:09.137Z,100690.91
2023-02-26T22:37:40.402Z,100695.53
2023-02-26T22:40:14.065Z,100700.19
2023-02-26T22:42:43.801Z,100705.41
2023-02-26T22:45:13.988Z,100708.84
2023-02-26T22:47:48.516Z,100710.59
2023-02-26T22:50:25.151Z,100705.13
2023-02-26T22:52:53.687Z,100705.19
2023-02-26T22:55:24.455Z,100703.50
2023-02-26T22:57:52.584Z,100705.59
2023-02-26T23:00:21.734Z,100704.66
2023-02-26T23:02:51.582Z,100714.56
2023-02-26T23:05:20.955Z,100714.63
2023-02-26T23:07:51.155Z,100718.47
2023-02-26T23:10:21.081Z,100713.81
2023-02-26T23:12:49.550Z,100704.97
2023-02-26T23:15:17.848Z,100696.47
2023-02-26T23:17:46.495Z,100717.69
2023-02-26T23:20:15.408Z,100718.56
2023-02-26T23:22:44.176Z,100719.50
2023-02-26T23:25:13.696Z,100717.88
2023-02-26T23:27:42.600Z,100709.91
2023-02-26T23:30:14.825Z,100719.06
2023-02-26T23:32:43.302Z,100727.81
2023-02-26T23:35:15.470Z,100727.13
2023-02-26T23:37:43.975Z,100737.66
2023-02-26T23:40:15.076Z,100739.50
2023-02-26T23:43:09.425Z,100738.81
2023-02-26T23:45:38.143Z,100736.81
2023-02-26T23:48:07.472Z,100736.72
2023-02-26T23:50:41.499Z,100737.34
2023-02-26T23:53:09.767Z,100737.34
2023-02-26T23:55:38.722Z,100742.88
2023-02-26T23:58:12.818Z,100736.50
